sensor_id;sensor_type;location;lat;lon;timestamp;P1;durP1;ratioP1;P2;durP2;ratioP2
47824;SDS011;33589;48.242;14.676;2023-08-06T00:00:08;2.50;;;1.50;;
47824;SDS011;33589;48.242;14.676;2023-08-06T00:02:34;1.90;;;1.40;;
47824;SDS011;33589;48.242;14.676;2023-08-06T00:05:00;1.40;;;1.30;;
47824;SDS011;33589;48.242;14.676;2023-08-06T00:07:25;3.00;;;1.90;;
47824;SDS011;33589;48.242;14.676;2023-08-06T00:09:51;1.65;;;1.30;;
47824;SDS011;33589;48.242;14.676;2023-08-06T00:12:17;1.70;;;1.40;;
47824;SDS011;33589;48.242;14.676;2023-08-06T00:14:42;1.50;;;1.40;;
47824;SDS011;33589;48.242;14.676;2023-08-06T00:17:08;4.30;;;1.55;;
47824;SDS011;33589;48.242;14.676;2023-08-06T00:19:34;1.90;;;1.30;;
47824;SDS011;33589;48.242;14.676;2023-08-06T00:22:00;1.65;;;1.30;;
47824;SDS011;33589;48.242;14.676;2023-08-06T00:24:27;2.63;;;1.27;;
47824;SDS011;33589;48.242;14.676;2023-08-06T00:26:52;1.48;;;1.05;;
47824;SDS011;33589;48.242;14.676;2023-08-06T00:29:18;1.83;;;1.27;;
47824;SDS011;33589;48.242;14.676;2023-08-06T00:31:43;3.08;;;1.27;;
47824;SDS011;33589;48.242;14.676;2023-08-06T00:34:09;3.25;;;1.15;;
47824;SDS011;33589;48.242;14.676;2023-08-06T00:36:36;1.38;;;1.15;;
47824;SDS011;33589;48.242;14.676;2023-08-06T00:39:02;1.10;;;0.90;;
47824;SDS011;33589;48.242;14.676;2023-08-06T00:41:27;6.13;;;1.42;;
47824;SDS011;33589;48.242;14.676;2023-08-06T00:43:53;1.83;;;1.10;;
47824;SDS011;33589;48.242;14.676;2023-08-06T00:46:19;1.95;;;1.20;;
47824;SDS011;33589;48.242;14.676;2023-08-06T00:48:45;1.17;;;1.08;;
47824;SDS011;33589;48.242;14.676;2023-08-06T00:51:12;1.67;;;1.20;;
47824;SDS011;33589;48.242;14.676;2023-08-06T00:53:38;2.45;;;1.20;;
47824;SDS011;33589;48.242;14.676;2023-08-06T00:56:05;1.45;;;1.10;;
47824;SDS011;33589;48.242;14.676;2023-08-06T00:58:32;2.78;;;1.10;;
47824;SDS011;33589;48.242;14.676;2023-08-06T01:00:59;1.30;;;1.20;;
47824;SDS011;33589;48.242;14.676;2023-08-06T01:03:24;1.45;;;1.00;;
47824;SDS011;33589;48.242;14.676;2023-08-06T01:05:50;1.17;;;1.00;;
47824;SDS011;33589;48.242;14.676;2023-08-06T01:11:14;2.05;;;1.15;;
47824;SDS011;33589;48.242;14.676;2023-08-06T01:14:06;1.73;;;1.00;;
47824;SDS011;33589;48.242;14.676;2023-08-06T01:16:38;1.98;;;1.20;;
47824;SDS011;33589;48.242;14.676;2023-08-06T01:19:05;2.55;;;1.00;;
47824;SDS011;33589;48.242;14.676;2023-08-06T01:21:40;2.65;;;1.13;;
47824;SDS011;33589;48.242;14.676;2023-08-06T01:24:06;1.27;;;1.10;;
47824;SDS011;33589;48.242;14.676;2023-08-06T01:26:45;1.17;;;1.00;;
47824;SDS011;33589;48.242;14.676;2023-08-06T01:29:31;1.25;;;1.10;;
47824;SDS011;33589;48.242;14.676;2023-08-06T01:32:12;1.00;;;0.93;;
47824;SDS011;33589;48.242;14.676;2023-08-06T01:34:40;2.63;;;1.00;;
47824;SDS011;33589;48.242;14.676;2023-08-06T01:37:09;1.10;;;1.00;;
47824;SDS011;33589;48.242;14.676;2023-08-06T01:39:35;1.40;;;1.02;;
47824;SDS011;33589;48.242;14.676;2023-08-06T01:42:02;1.08;;;0.90;;
47824;SDS011;33589;48.242;14.676;2023-08-06T01:44:28;1.55;;;1.10;;
47824;SDS011;33589;48.242;14.676;2023-08-06T01:46:54;1.20;;;1.10;;
47824;SDS011;33589;48.242;14.676;2023-08-06T01:49:20;1.42;;;1.10;;
47824;SDS011;33589;48.242;14.676;2023-08-06T01:51:46;3.00;;;1.38;;
47824;SDS011;33589;48.242;14.676;2023-08-06T01:54:11;1.10;;;0.90;;
47824;SDS011;33589;48.242;14.676;2023-08-06T01:56:37;1.27;;;1.13;;
47824;SDS011;33589;48.242;14.676;2023-08-06T01:59:02;2.03;;;1.10;;
47824;SDS011;33589;48.242;14.676;2023-08-06T02:01:28;1.42;;;1.10;;
47824;SDS011;33589;48.242;14.676;2023-08-06T02:03:54;1.25;;;1.02;;
47824;SDS011;33589;48.242;14.676;2023-08-06T02:06:19;1.20;;;1.10;;
47824;SDS011;33589;48.242;14.676;2023-08-06T02:08:45;1.15;;;1.05;;
47824;SDS011;33589;48.242;14.676;2023-08-06T02:11:13;2.85;;;1.50;;
47824;SDS011;33589;48.242;14.676;2023-08-06T02:13:38;1.20;;;1.10;;
47824;SDS011;33589;48.242;14.676;2023-08-06T02:16:06;2.83;;;1.15;;
47824;SDS011;33589;48.242;14.676;2023-08-06T02:18:34;1.55;;;1.30;;
47824;SDS011;33589;48.242;14.676;2023-08-06T02:21:00;4.07;;;1.50;;
47824;SDS011;33589;48.242;14.676;2023-08-06T02:23:27;1.75;;;1.05;;
47824;SDS011;33589;48.242;14.676;2023-08-06T02:28:27;2.22;;;1.20;;
47824;SDS011;33589;48.242;14.676;2023-08-06T02:30:53;2.90;;;1.20;;
47824;SDS011;33589;48.242;14.676;2023-08-06T02:33:18;4.13;;;1.45;;
47824;SDS011;33589;48.242;14.676;2023-08-06T02:35:44;4.45;;;1.60;;
47824;SDS011;33589;48.242;14.676;2023-08-06T02:38:10;4.18;;;1.40;;
47824;SDS011;33589;48.242;14.676;2023-08-06T02:40:35;3.33;;;1.48;;
47824;SDS011;33589;48.242;14.676;2023-08-06T02:43:01;2.55;;;1.20;;
47824;SDS011;33589;48.242;14.676;2023-08-06T02:45:27;2.60;;;1.50;;
47824;SDS011;33589;48.242;14.676;2023-08-06T02:47:53;4.72;;;1.67;;
47824;SDS011;33589;48.242;14.676;2023-08-06T02:50:19;5.00;;;2.10;;
47824;SDS011;33589;48.242;14.676;2023-08-06T02:52:45;4.15;;;2.10;;
47824;SDS011;33589;48.242;14.676;2023-08-06T02:55:10;5.53;;;2.03;;
47824;SDS011;33589;48.242;14.676;2023-08-06T02:57:40;3.58;;;1.50;;
47824;SDS011;33589;48.242;14.676;2023-08-06T03:00:06;4.93;;;1.60;;
47824;SDS011;33589;48.242;14.676;2023-08-06T03:02:32;5.85;;;1.55;;
47824;SDS011;33589;48.242;14.676;2023-08-06T03:05:05;6.13;;;1.83;;
47824;SDS011;33589;48.242;14.676;2023-08-06T03:07:35;4.70;;;1.73;;
47824;SDS011;33589;48.242;14.676;2023-08-06T03:10:09;5.45;;;1.75;;
47824;SDS011;33589;48.242;14.676;2023-08-06T03:12:35;5.00;;;1.70;;
47824;SDS011;33589;48.242;14.676;2023-08-06T03:15:03;4.13;;;1.80;;
47824;SDS011;33589;48.242;14.676;2023-08-06T03:17:29;8.10;;;2.10;;
47824;SDS011;33589;48.242;14.676;2023-08-06T03:19:55;8.50;;;2.25;;
47824;SDS011;33589;48.242;14.676;2023-08-06T03:22:22;10.25;;;2.03;;
47824;SDS011;33589;48.242;14.676;2023-08-06T03:24:50;14.10;;;2.80;;
47824;SDS011;33589;48.242;14.676;2023-08-06T03:27:18;11.68;;;3.08;;
47824;SDS011;33589;48.242;14.676;2023-08-06T03:29:43;9.45;;;2.55;;
47824;SDS011;33589;48.242;14.676;2023-08-06T03:32:09;9.88;;;2.55;;
47824;SDS011;33589;48.242;14.676;2023-08-06T03:34:35;9.80;;;2.60;;
47824;SDS011;33589;48.242;14.676;2023-08-06T03:37:01;7.50;;;2.07;;
47824;SDS011;33589;48.242;14.676;2023-08-06T03:39:27;12.13;;;2.40;;
47824;SDS011;33589;48.242;14.676;2023-08-06T03:41:52;8.57;;;2.77;;
47824;SDS011;33589;48.242;14.676;2023-08-06T03:44:18;11.67;;;2.90;;
47824;SDS011;33589;48.242;14.676;2023-08-06T03:46:44;10.23;;;2.10;;
47824;SDS011;33589;48.242;14.676;2023-08-06T03:49:10;6.97;;;2.17;;
47824;SDS011;33589;48.242;14.676;2023-08-06T03:51:35;9.77;;;2.33;;
47824;SDS011;33589;48.242;14.676;2023-08-06T03:54:01;7.85;;;2.15;;
47824;SDS011;33589;48.242;14.676;2023-08-06T03:56:27;9.47;;;2.37;;
47824;SDS011;33589;48.242;14.676;2023-08-06T03:58:53;7.27;;;2.20;;
47824;SDS011;33589;48.242;14.676;2023-08-06T04:01:18;7.87;;;2.10;;
47824;SDS011;33589;48.242;14.676;2023-08-06T04:03:46;10.50;;;2.60;;
47824;SDS011;33589;48.242;14.676;2023-08-06T04:06:12;9.83;;;2.40;;
47824;SDS011;33589;48.242;14.676;2023-08-06T04:08:37;11.37;;;3.10;;
47824;SDS011;33589;48.242;14.676;2023-08-06T04:11:03;7.80;;;2.23;;
47824;SDS011;33589;48.242;14.676;2023-08-06T04:13:29;10.73;;;2.07;;
47824;SDS011;33589;48.242;14.676;2023-08-06T04:16:00;18.00;;;2.73;;
47824;SDS011;33589;48.242;14.676;2023-08-06T04:18:30;8.13;;;2.37;;
47824;SDS011;33589;48.242;14.676;2023-08-06T04:20:55;9.00;;;2.20;;
47824;SDS011;33589;48.242;14.676;2023-08-06T04:23:22;8.43;;;2.07;;
47824;SDS011;33589;48.242;14.676;2023-08-06T04:25:49;9.00;;;2.07;;
47824;SDS011;33589;48.242;14.676;2023-08-06T04:28:15;7.25;;;2.00;;
47824;SDS011;33589;48.242;14.676;2023-08-06T04:30:40;5.97;;;1.90;;
47824;SDS011;33589;48.242;14.676;2023-08-06T04:33:07;9.00;;;2.27;;
47824;SDS011;33589;48.242;14.676;2023-08-06T04:35:33;7.03;;;2.05;;
47824;SDS011;33589;48.242;14.676;2023-08-06T04:37:59;9.37;;;2.27;;
47824;SDS011;33589;48.242;14.676;2023-08-06T04:40:25;7.53;;;2.20;;
47824;SDS011;33589;48.242;14.676;2023-08-06T04:42:51;5.23;;;1.83;;
47824;SDS011;33589;48.242;14.676;2023-08-06T04:45:17;6.93;;;1.75;;
47824;SDS011;33589;48.242;14.676;2023-08-06T04:47:43;5.32;;;1.65;;
47824;SDS011;33589;48.242;14.676;2023-08-06T04:50:09;6.07;;;1.60;;
47824;SDS011;33589;48.242;14.676;2023-08-06T04:52:34;3.47;;;1.33;;
47824;SDS011;33589;48.242;14.676;2023-08-06T04:55:01;3.83;;;1.33;;
47824;SDS011;33589;48.242;14.676;2023-08-06T04:57:27;4.83;;;1.50;;
47824;SDS011;33589;48.242;14.676;2023-08-06T04:59:52;6.83;;;1.50;;
47824;SDS011;33589;48.242;14.676;2023-08-06T05:02:18;6.30;;;1.57;;
47824;SDS011;33589;48.242;14.676;2023-08-06T05:04:43;6.80;;;1.60;;
47824;SDS011;33589;48.242;14.676;2023-08-06T05:07:10;6.73;;;1.60;;
47824;SDS011;33589;48.242;14.676;2023-08-06T05:09:35;5.67;;;2.03;;
47824;SDS011;33589;48.242;14.676;2023-08-06T05:12:01;7.00;;;1.63;;
47824;SDS011;33589;48.242;14.676;2023-08-06T05:14:27;4.20;;;1.37;;
47824;SDS011;33589;48.242;14.676;2023-08-06T05:16:53;3.57;;;1.47;;
47824;SDS011;33589;48.242;14.676;2023-08-06T05:19:18;3.40;;;1.43;;
47824;SDS011;33589;48.242;14.676;2023-08-06T05:21:44;4.73;;;1.67;;
47824;SDS011;33589;48.242;14.676;2023-08-06T05:24:09;3.53;;;1.23;;
47824;SDS011;33589;48.242;14.676;2023-08-06T05:26:35;4.90;;;1.30;;
47824;SDS011;33589;48.242;14.676;2023-08-06T05:29:01;3.90;;;1.10;;
47824;SDS011;33589;48.242;14.676;2023-08-06T05:31:26;4.07;;;1.20;;
47824;SDS011;33589;48.242;14.676;2023-08-06T05:33:54;3.03;;;1.10;;
47824;SDS011;33589;48.242;14.676;2023-08-06T05:36:19;4.20;;;1.07;;
47824;SDS011;33589;48.242;14.676;2023-08-06T05:38:46;1.83;;;0.80;;
47824;SDS011;33589;48.242;14.676;2023-08-06T05:41:12;2.83;;;1.07;;
47824;SDS011;33589;48.242;14.676;2023-08-06T05:43:37;3.03;;;1.00;;
47824;SDS011;33589;48.242;14.676;2023-08-06T05:46:03;2.43;;;1.10;;
47824;SDS011;33589;48.242;14.676;2023-08-06T05:48:29;5.37;;;0.97;;
47824;SDS011;33589;48.242;14.676;2023-08-06T05:50:55;1.93;;;1.00;;
47824;SDS011;33589;48.242;14.676;2023-08-06T05:53:20;2.87;;;1.10;;
47824;SDS011;33589;48.242;14.676;2023-08-06T05:55:46;3.13;;;1.00;;
47824;SDS011;33589;48.242;14.676;2023-08-06T05:58:12;2.40;;;1.10;;
47824;SDS011;33589;48.242;14.676;2023-08-06T06:00:38;2.83;;;1.17;;
47824;SDS011;33589;48.242;14.676;2023-08-06T06:03:03;2.70;;;1.10;;
47824;SDS011;33589;48.242;14.676;2023-08-06T06:05:29;2.92;;;1.33;;
47824;SDS011;33589;48.242;14.676;2023-08-06T06:07:55;2.78;;;1.30;;
47824;SDS011;33589;48.242;14.676;2023-08-06T06:10:20;3.40;;;1.33;;
47824;SDS011;33589;48.242;14.676;2023-08-06T06:12:46;2.67;;;1.42;;
47824;SDS011;33589;48.242;14.676;2023-08-06T06:15:11;2.92;;;1.20;;
47824;SDS011;33589;48.242;14.676;2023-08-06T06:17:37;1.70;;;1.10;;
47824;SDS011;33589;48.242;14.676;2023-08-06T06:20:03;2.90;;;1.30;;
47824;SDS011;33589;48.242;14.676;2023-08-06T06:22:30;2.78;;;1.27;;
47824;SDS011;33589;48.242;14.676;2023-08-06T06:24:55;2.67;;;1.05;;
47824;SDS011;33589;48.242;14.676;2023-08-06T06:27:21;4.63;;;1.02;;
47824;SDS011;33589;48.242;14.676;2023-08-06T06:29:47;2.15;;;1.00;;
47824;SDS011;33589;48.242;14.676;2023-08-06T06:32:12;2.65;;;1.15;;
47824;SDS011;33589;48.242;14.676;2023-08-06T06:34:38;2.53;;;1.02;;
47824;SDS011;33589;48.242;14.676;2023-08-06T06:37:03;1.60;;;1.00;;
47824;SDS011;33589;48.242;14.676;2023-08-06T06:39:29;2.88;;;0.95;;
47824;SDS011;33589;48.242;14.676;2023-08-06T06:41:55;1.50;;;0.90;;
47824;SDS011;33589;48.242;14.676;2023-08-06T06:44:29;2.90;;;1.02;;
47824;SDS011;33589;48.242;14.676;2023-08-06T06:46:55;2.60;;;1.13;;
47824;SDS011;33589;48.242;14.676;2023-08-06T06:49:20;3.15;;;1.00;;
47824;SDS011;33589;48.242;14.676;2023-08-06T06:51:46;2.00;;;0.82;;
47824;SDS011;33589;48.242;14.676;2023-08-06T06:54:11;1.38;;;0.73;;
47824;SDS011;33589;48.242;14.676;2023-08-06T06:56:37;2.00;;;1.00;;
47824;SDS011;33589;48.242;14.676;2023-08-06T06:59:03;1.52;;;0.70;;
47824;SDS011;33589;48.242;14.676;2023-08-06T07:01:28;0.90;;;0.50;;
47824;SDS011;33589;48.242;14.676;2023-08-06T07:03:54;1.45;;;0.60;;
47824;SDS011;33589;48.242;14.676;2023-08-06T07:06:19;0.45;;;0.45;;
47824;SDS011;33589;48.242;14.676;2023-08-06T07:08:45;1.13;;;0.80;;
47824;SDS011;33589;48.242;14.676;2023-08-06T07:11:11;4.35;;;2.67;;
47824;SDS011;33589;48.242;14.676;2023-08-06T07:13:37;4.88;;;2.40;;
47824;SDS011;33589;48.242;14.676;2023-08-06T07:16:02;7.50;;;3.97;;
47824;SDS011;33589;48.242;14.676;2023-08-06T07:18:28;2.08;;;1.65;;
47824;SDS011;33589;48.242;14.676;2023-08-06T07:20:55;9.57;;;6.60;;
47824;SDS011;33589;48.242;14.676;2023-08-06T07:23:21;4.38;;;3.45;;
47824;SDS011;33589;48.242;14.676;2023-08-06T07:25:48;5.53;;;2.00;;
47824;SDS011;33589;48.242;14.676;2023-08-06T07:28:14;2.00;;;1.33;;
47824;SDS011;33589;48.242;14.676;2023-08-06T07:30:41;2.88;;;1.75;;
47824;SDS011;33589;48.242;14.676;2023-08-06T07:33:07;3.97;;;1.80;;
47824;SDS011;33589;48.242;14.676;2023-08-06T07:35:34;2.97;;;1.40;;
47824;SDS011;33589;48.242;14.676;2023-08-06T07:37:59;1.15;;;1.05;;
47824;SDS011;33589;48.242;14.676;2023-08-06T07:40:25;1.40;;;1.10;;
47824;SDS011;33589;48.242;14.676;2023-08-06T07:42:51;1.75;;;1.15;;
47824;SDS011;33589;48.242;14.676;2023-08-06T07:45:16;3.67;;;1.45;;
47824;SDS011;33589;48.242;14.676;2023-08-06T07:47:42;1.10;;;0.85;;
47824;SDS011;33589;48.242;14.676;2023-08-06T07:50:08;1.73;;;1.42;;
47824;SDS011;33589;48.242;14.676;2023-08-06T07:52:34;0.80;;;0.80;;
47824;SDS011;33589;48.242;14.676;2023-08-06T07:55:00;1.08;;;0.80;;
47824;SDS011;33589;48.242;14.676;2023-08-06T07:57:30;1.23;;;0.57;;
47824;SDS011;33589;48.242;14.676;2023-08-06T07:59:56;1.23;;;0.75;;
47824;SDS011;33589;48.242;14.676;2023-08-06T08:02:21;1.73;;;0.60;;
47824;SDS011;33589;48.242;14.676;2023-08-06T08:04:47;0.75;;;0.50;;
47824;SDS011;33589;48.242;14.676;2023-08-06T08:07:13;1.20;;;1.00;;
47824;SDS011;33589;48.242;14.676;2023-08-06T08:09:39;3.53;;;1.00;;
47824;SDS011;33589;48.242;14.676;2023-08-06T08:12:04;1.10;;;0.70;;
47824;SDS011;33589;48.242;14.676;2023-08-06T08:14:30;0.68;;;0.68;;
47824;SDS011;33589;48.242;14.676;2023-08-06T08:17:03;1.77;;;0.70;;
47824;SDS011;33589;48.242;14.676;2023-08-06T08:19:30;0.65;;;0.50;;
47824;SDS011;33589;48.242;14.676;2023-08-06T08:21:56;0.70;;;0.70;;
47824;SDS011;33589;48.242;14.676;2023-08-06T08:24:22;0.70;;;0.70;;
47824;SDS011;33589;48.242;14.676;2023-08-06T08:26:49;1.00;;;0.90;;
47824;SDS011;33589;48.242;14.676;2023-08-06T08:29:15;1.63;;;1.30;;
47824;SDS011;33589;48.242;14.676;2023-08-06T08:31:41;0.80;;;0.80;;
47824;SDS011;33589;48.242;14.676;2023-08-06T08:34:08;1.05;;;0.80;;
47824;SDS011;33589;48.242;14.676;2023-08-06T08:36:34;0.60;;;0.60;;
47824;SDS011;33589;48.242;14.676;2023-08-06T08:38:59;1.92;;;0.70;;
47824;SDS011;33589;48.242;14.676;2023-08-06T08:41:27;0.57;;;0.55;;
47824;SDS011;33589;48.242;14.676;2023-08-06T08:43:54;0.60;;;0.60;;
47824;SDS011;33589;48.242;14.676;2023-08-06T08:46:22;0.77;;;0.70;;
47824;SDS011;33589;48.242;14.676;2023-08-06T08:48:49;1.20;;;1.02;;
47824;SDS011;33589;48.242;14.676;2023-08-06T08:51:15;1.13;;;1.02;;
47824;SDS011;33589;48.242;14.676;2023-08-06T08:53:41;1.60;;;0.82;;
47824;SDS011;33589;48.242;14.676;2023-08-06T08:56:09;0.80;;;0.73;;
47824;SDS011;33589;48.242;14.676;2023-08-06T08:58:38;2.15;;;0.85;;
47824;SDS011;33589;48.242;14.676;2023-08-06T09:01:03;0.52;;;0.52;;
47824;SDS011;33589;48.242;14.676;2023-08-06T09:03:31;0.60;;;0.60;;
47824;SDS011;33589;48.242;14.676;2023-08-06T09:05:57;0.60;;;0.60;;
47824;SDS011;33589;48.242;14.676;2023-08-06T09:08:27;0.85;;;0.60;;
47824;SDS011;33589;48.242;14.676;2023-08-06T09:11:09;1.23;;;1.13;;
47824;SDS011;33589;48.242;14.676;2023-08-06T09:13:38;0.70;;;0.70;;
47824;SDS011;33589;48.242;14.676;2023-08-06T09:16:04;1.20;;;0.73;;
47824;SDS011;33589;48.242;14.676;2023-08-06T09:18:30;1.05;;;0.75;;
47824;SDS011;33589;48.242;14.676;2023-08-06T09:20:56;0.82;;;0.68;;
47824;SDS011;33589;48.242;14.676;2023-08-06T09:23:29;0.70;;;0.70;;
47824;SDS011;33589;48.242;14.676;2023-08-06T09:25:55;0.77;;;0.60;;
47824;SDS011;33589;48.242;14.676;2023-08-06T09:28:22;0.70;;;0.50;;
47824;SDS011;33589;48.242;14.676;2023-08-06T09:30:49;1.08;;;0.68;;
47824;SDS011;33589;48.242;14.676;2023-08-06T09:33:17;0.55;;;0.52;;
47824;SDS011;33589;48.242;14.676;2023-08-06T09:35:45;1.60;;;0.68;;
47824;SDS011;33589;48.242;14.676;2023-08-06T09:38:11;0.82;;;0.50;;
47824;SDS011;33589;48.242;14.676;2023-08-06T09:40:38;1.95;;;1.10;;
47824;SDS011;33589;48.242;14.676;2023-08-06T09:43:04;1.00;;;0.85;;
47824;SDS011;33589;48.242;14.676;2023-08-06T09:45:31;1.38;;;0.77;;
47824;SDS011;33589;48.242;14.676;2023-08-06T09:47:58;1.52;;;0.80;;
47824;SDS011;33589;48.242;14.676;2023-08-06T09:50:29;0.45;;;0.45;;
47824;SDS011;33589;48.242;14.676;2023-08-06T09:52:56;2.00;;;1.80;;
47824;SDS011;33589;48.242;14.676;2023-08-06T09:55:23;2.05;;;1.65;;
47824;SDS011;33589;48.242;14.676;2023-08-06T09:57:50;0.40;;;0.40;;
47824;SDS011;33589;48.242;14.676;2023-08-06T10:00:16;2.08;;;1.15;;
47824;SDS011;33589;48.242;14.676;2023-08-06T10:02:45;0.57;;;0.57;;
47824;SDS011;33589;48.242;14.676;2023-08-06T10:05:11;0.60;;;0.60;;
47824;SDS011;33589;48.242;14.676;2023-08-06T10:07:37;0.82;;;0.70;;
47824;SDS011;33589;48.242;14.676;2023-08-06T10:10:05;2.70;;;0.70;;
47824;SDS011;33589;48.242;14.676;2023-08-06T10:12:36;0.73;;;0.70;;
47824;SDS011;33589;48.242;14.676;2023-08-06T10:15:06;2.10;;;1.92;;
47824;SDS011;33589;48.242;14.676;2023-08-06T10:17:36;0.50;;;0.50;;
47824;SDS011;33589;48.242;14.676;2023-08-06T10:20:07;0.70;;;0.70;;
47824;SDS011;33589;48.242;14.676;2023-08-06T10:22:34;2.45;;;1.05;;
47824;SDS011;33589;48.242;14.676;2023-08-06T10:25:00;1.58;;;0.70;;
47824;SDS011;33589;48.242;14.676;2023-08-06T10:27:33;2.85;;;2.55;;
47824;SDS011;33589;48.242;14.676;2023-08-06T10:32:54;3.22;;;1.00;;
47824;SDS011;33589;48.242;14.676;2023-08-06T10:35:29;1.30;;;1.20;;
47824;SDS011;33589;48.242;14.676;2023-08-06T10:38:09;1.50;;;1.33;;
47824;SDS011;33589;48.242;14.676;2023-08-06T10:40:36;1.98;;;1.80;;
47824;SDS011;33589;48.242;14.676;2023-08-06T10:43:04;1.80;;;1.10;;
47824;SDS011;33589;48.242;14.676;2023-08-06T10:45:35;1.38;;;0.70;;
47824;SDS011;33589;48.242;14.676;2023-08-06T10:48:02;1.13;;;0.63;;
47824;SDS011;33589;48.242;14.676;2023-08-06T10:50:30;0.68;;;0.68;;
47824;SDS011;33589;48.242;14.676;2023-08-06T10:52:56;0.70;;;0.70;;
47824;SDS011;33589;48.242;14.676;2023-08-06T10:55:26;1.17;;;1.08;;
47824;SDS011;33589;48.242;14.676;2023-08-06T10:57:54;1.02;;;0.75;;
47824;SDS011;33589;48.242;14.676;2023-08-06T11:00:23;0.90;;;0.90;;
47824;SDS011;33589;48.242;14.676;2023-08-06T11:02:50;0.70;;;0.70;;
47824;SDS011;33589;48.242;14.676;2023-08-06T11:05:16;1.70;;;0.90;;
47824;SDS011;33589;48.242;14.676;2023-08-06T11:07:42;1.15;;;0.90;;
47824;SDS011;33589;48.242;14.676;2023-08-06T11:10:09;0.70;;;0.70;;
47824;SDS011;33589;48.242;14.676;2023-08-06T11:12:36;0.65;;;0.63;;
47824;SDS011;33589;48.242;14.676;2023-08-06T11:15:02;3.13;;;2.85;;
47824;SDS011;33589;48.242;14.676;2023-08-06T11:17:29;1.95;;;1.50;;
47824;SDS011;33589;48.242;14.676;2023-08-06T11:20:01;0.57;;;0.57;;
47824;SDS011;33589;48.242;14.676;2023-08-06T11:22:29;0.95;;;0.60;;
47824;SDS011;33589;48.242;14.676;2023-08-06T11:24:54;0.60;;;0.60;;
47824;SDS011;33589;48.242;14.676;2023-08-06T11:27:20;0.90;;;0.80;;
47824;SDS011;33589;48.242;14.676;2023-08-06T11:29:47;0.80;;;0.80;;
47824;SDS011;33589;48.242;14.676;2023-08-06T11:32:18;2.17;;;0.93;;
47824;SDS011;33589;48.242;14.676;2023-08-06T11:34:49;1.13;;;0.90;;
47824;SDS011;33589;48.242;14.676;2023-08-06T11:37:22;1.08;;;0.85;;
47824;SDS011;33589;48.242;14.676;2023-08-06T11:39:51;0.75;;;0.70;;
47824;SDS011;33589;48.242;14.676;2023-08-06T11:42:19;2.70;;;2.30;;
47824;SDS011;33589;48.242;14.676;2023-08-06T11:45:03;1.60;;;1.42;;
47824;SDS011;33589;48.242;14.676;2023-08-06T11:47:29;11.10;;;7.82;;
47824;SDS011;33589;48.242;14.676;2023-08-06T11:49:55;2.72;;;1.70;;
47824;SDS011;33589;48.242;14.676;2023-08-06T11:52:22;4.07;;;3.05;;
47824;SDS011;33589;48.242;14.676;2023-08-06T11:55:01;1.42;;;1.00;;
47824;SDS011;33589;48.242;14.676;2023-08-06T11:57:33;1.33;;;0.90;;
47824;SDS011;33589;48.242;14.676;2023-08-06T12:00:09;0.60;;;0.60;;
47824;SDS011;33589;48.242;14.676;2023-08-06T12:02:40;0.50;;;0.50;;
47824;SDS011;33589;48.242;14.676;2023-08-06T12:05:11;0.90;;;0.50;;
47824;SDS011;33589;48.242;14.676;2023-08-06T12:07:41;0.82;;;0.63;;
47824;SDS011;33589;48.242;14.676;2023-08-06T12:10:12;0.50;;;0.50;;
47824;SDS011;33589;48.242;14.676;2023-08-06T12:12:38;1.15;;;0.80;;
47824;SDS011;33589;48.242;14.676;2023-08-06T12:15:04;0.70;;;0.70;;
47824;SDS011;33589;48.242;14.676;2023-08-06T12:17:33;0.65;;;0.65;;
47824;SDS011;33589;48.242;14.676;2023-08-06T12:19:59;1.48;;;1.38;;
47824;SDS011;33589;48.242;14.676;2023-08-06T12:22:25;0.77;;;0.77;;
47824;SDS011;33589;48.242;14.676;2023-08-06T12:24:52;0.77;;;0.60;;
47824;SDS011;33589;48.242;14.676;2023-08-06T12:27:17;0.60;;;0.60;;
47824;SDS011;33589;48.242;14.676;2023-08-06T12:29:44;1.00;;;1.00;;
47824;SDS011;33589;48.242;14.676;2023-08-06T12:32:11;0.50;;;0.50;;
47824;SDS011;33589;48.242;14.676;2023-08-06T12:34:37;0.70;;;0.70;;
47824;SDS011;33589;48.242;14.676;2023-08-06T12:37:04;0.50;;;0.50;;
47824;SDS011;33589;48.242;14.676;2023-08-06T12:39:30;2.83;;;1.42;;
47824;SDS011;33589;48.242;14.676;2023-08-06T12:41:57;1.77;;;1.10;;
47824;SDS011;33589;48.242;14.676;2023-08-06T12:44:24;0.60;;;0.60;;
47824;SDS011;33589;48.242;14.676;2023-08-06T12:46:50;0.65;;;0.63;;
47824;SDS011;33589;48.242;14.676;2023-08-06T12:49:17;0.63;;;0.57;;
47824;SDS011;33589;48.242;14.676;2023-08-06T12:51:43;1.30;;;0.60;;
47824;SDS011;33589;48.242;14.676;2023-08-06T12:54:09;0.50;;;0.50;;
47824;SDS011;33589;48.242;14.676;2023-08-06T12:56:34;0.98;;;0.90;;
47824;SDS011;33589;48.242;14.676;2023-08-06T12:59:00;0.80;;;0.80;;
47824;SDS011;33589;48.242;14.676;2023-08-06T13:01:25;0.75;;;0.75;;
47824;SDS011;33589;48.242;14.676;2023-08-06T13:03:51;1.52;;;1.00;;
47824;SDS011;33589;48.242;14.676;2023-08-06T13:06:17;2.90;;;2.03;;
47824;SDS011;33589;48.242;14.676;2023-08-06T13:08:42;1.20;;;1.02;;
47824;SDS011;33589;48.242;14.676;2023-08-06T13:11:08;1.95;;;1.30;;
47824;SDS011;33589;48.242;14.676;2023-08-06T13:13:34;1.30;;;0.90;;
47824;SDS011;33589;48.242;14.676;2023-08-06T13:16:00;2.05;;;1.20;;
47824;SDS011;33589;48.242;14.676;2023-08-06T13:18:25;2.88;;;1.30;;
47824;SDS011;33589;48.242;14.676;2023-08-06T13:20:55;3.53;;;2.70;;
47824;SDS011;33589;48.242;14.676;2023-08-06T13:23:20;2.90;;;1.15;;
47824;SDS011;33589;48.242;14.676;2023-08-06T13:25:46;1.13;;;0.90;;
47824;SDS011;33589;48.242;14.676;2023-08-06T13:28:12;3.10;;;2.30;;
47824;SDS011;33589;48.242;14.676;2023-08-06T13:30:39;2.17;;;1.00;;
47824;SDS011;33589;48.242;14.676;2023-08-06T13:33:08;4.95;;;2.95;;
47824;SDS011;33589;48.242;14.676;2023-08-06T13:35:34;3.17;;;1.75;;
47824;SDS011;33589;48.242;14.676;2023-08-06T13:38:00;2.45;;;2.13;;
47824;SDS011;33589;48.242;14.676;2023-08-06T13:40:28;1.30;;;0.88;;
47824;SDS011;33589;48.242;14.676;2023-08-06T13:42:55;3.50;;;2.88;;
47824;SDS011;33589;48.242;14.676;2023-08-06T13:45:21;1.05;;;0.70;;
47824;SDS011;33589;48.242;14.676;2023-08-06T13:47:47;1.15;;;0.90;;
47824;SDS011;33589;48.242;14.676;2023-08-06T13:50:12;0.95;;;0.73;;
47824;SDS011;33589;48.242;14.676;2023-08-06T13:52:38;0.90;;;0.82;;
47824;SDS011;33589;48.242;14.676;2023-08-06T13:55:04;0.80;;;0.80;;
47824;SDS011;33589;48.242;14.676;2023-08-06T13:57:30;0.80;;;0.80;;
47824;SDS011;33589;48.242;14.676;2023-08-06T13:59:56;1.15;;;0.70;;
47824;SDS011;33589;48.242;14.676;2023-08-06T14:02:22;2.53;;;0.90;;
47824;SDS011;33589;48.242;14.676;2023-08-06T14:04:48;3.00;;;0.60;;
47824;SDS011;33589;48.242;14.676;2023-08-06T14:07:13;1.25;;;0.70;;
47824;SDS011;33589;48.242;14.676;2023-08-06T14:09:39;0.73;;;0.70;;
47824;SDS011;33589;48.242;14.676;2023-08-06T14:12:05;0.50;;;0.50;;
47824;SDS011;33589;48.242;14.676;2023-08-06T14:14:31;0.60;;;0.60;;
47824;SDS011;33589;48.242;14.676;2023-08-06T14:16:57;1.70;;;0.60;;
47824;SDS011;33589;48.242;14.676;2023-08-06T14:19:24;4.82;;;4.35;;
47824;SDS011;33589;48.242;14.676;2023-08-06T14:21:54;0.50;;;0.50;;
47824;SDS011;33589;48.242;14.676;2023-08-06T14:24:21;1.35;;;1.00;;
47824;SDS011;33589;48.242;14.676;2023-08-06T14:26:47;0.60;;;0.60;;
47824;SDS011;33589;48.242;14.676;2023-08-06T14:29:12;1.48;;;1.33;;
47824;SDS011;33589;48.242;14.676;2023-08-06T14:31:39;4.43;;;3.95;;
47824;SDS011;33589;48.242;14.676;2023-08-06T14:34:05;1.40;;;1.30;;
47824;SDS011;33589;48.242;14.676;2023-08-06T14:36:31;1.17;;;0.90;;
47824;SDS011;33589;48.242;14.676;2023-08-06T14:38:57;1.25;;;0.90;;